Station History

Weather Underground - logo

Station Historical Data
Daily Summary for January 21, 2018 Units:  English    Metric   Both
« Previous Day
Next Day »
Daily Weekly Monthly Yearly Custom
  High: Low: Average:
Temperature: 57.2 °F 33.7 °F 43.4 °F
Dew Point: 42.0 °F 32.3 °F 37.7 °F
Humidity: 96 % 52 % 82 %
Wind Speed: 3.5 mph 0.0 mph 0.3 mph
Wind Gust: 3.5 mph - -
Wind:- - WNW
Pressure: 30.43 in 30.31 in -
Precipitation: 0.01 in    
Historical Graphs
 
 
Tabular Data for January 21, 2018
Time Temperature Dew Point Pressure Wind Wind Speed Wind Gust Humidity Rainfall Rate (Hourly)
00:01 34.7 °F 33.2 °F 30.31 in Calm     94 % 0.00 in
00:06 34.8 °F 33.2 °F 30.31 in Calm     94 % 0.00 in
00:22 34.9 °F 33.6 °F 30.31 in Calm     95 % 0.00 in
00:27 35.0 °F 33.7 °F 30.31 in Calm     95 % 0.00 in
00:32 35.0 °F 33.7 °F 30.31 in Calm     95 % 0.00 in
00:37 34.9 °F 33.6 °F 30.31 in Calm     95 % 0.00 in
00:42 34.7 °F 33.4 °F 30.31 in Calm     95 % 0.00 in
00:47 34.8 °F 33.5 °F 30.31 in Calm     95 % 0.00 in
00:52 34.9 °F 33.6 °F 30.32 in Calm     95 % 0.00 in
00:57 34.8 °F 33.5 °F 30.32 in Calm     95 % 0.00 in
01:02 34.8 °F 33.2 °F 30.32 in Calm     94 % 0.00 in
01:07 34.7 °F 33.4 °F 30.32 in Calm     95 % 0.00 in
01:12 34.9 °F 33.6 °F 30.32 in Calm     95 % 0.00 in
01:17 35.1 °F 33.8 °F 30.32 in Calm     95 % 0.00 in
01:22 35.5 °F 34.2 °F 30.33 in Calm     95 % 0.00 in
01:27 35.7 °F 34.4 °F 30.33 in Calm     95 % 0.00 in
01:32 35.9 °F 34.6 °F 30.32 in Calm     95 % 0.00 in
01:37 35.9 °F 34.6 °F 30.32 in Calm     95 % 0.00 in
01:42 35.9 °F 34.6 °F 30.32 in Calm     95 % 0.00 in
01:47 36.0 °F 34.7 °F 30.32 in Calm     95 % 0.00 in
01:52 35.9 °F 34.6 °F 30.32 in Calm     95 % 0.00 in
01:57 36.0 °F 34.7 °F 30.33 in Calm     95 % 0.00 in
02:02 36.1 °F 34.8 °F 30.33 in Calm     95 % 0.00 in
02:07 36.0 °F 34.7 °F 30.33 in Calm     95 % 0.00 in
02:12 35.8 °F 34.5 °F 30.33 in Calm     95 % 0.00 in
02:17 35.6 °F 34.0 °F 30.33 in Calm     94 % 0.00 in
02:22 35.3 °F 33.7 °F 30.33 in Calm     94 % 0.00 in
02:28 35.2 °F 33.6 °F 30.33 in Calm     94 % 0.00 in
02:32 35.1 °F 33.5 °F 30.33 in Calm     94 % 0.00 in
02:38 35.0 °F 33.4 °F 30.33 in Calm     94 % 0.00 in
02:43 34.9 °F 33.3 °F 30.33 in Calm     94 % 0.00 in
02:48 35.0 °F 33.7 °F 30.33 in Calm     95 % 0.00 in
02:53 35.1 °F 33.8 °F 30.33 in Calm     95 % 0.00 in
02:58 35.3 °F 34.0 °F 30.34 in Calm     95 % 0.00 in
03:03 35.6 °F 34.3 °F 30.34 in Calm     95 % 0.00 in
03:08 35.8 °F 34.5 °F 30.34 in Calm     95 % 0.00 in
03:13 36.0 °F 34.7 °F 30.33 in Calm     95 % 0.00 in
03:18 36.1 °F 34.8 °F 30.33 in Calm     95 % 0.00 in
03:23 36.3 °F 35.0 °F 30.33 in Calm     95 % 0.00 in
03:28 36.4 °F 35.1 °F 30.33 in Calm     95 % 0.00 in
03:33 36.4 °F 35.1 °F 30.34 in Calm     95 % 0.01 in
03:38 36.5 °F 35.2 °F 30.34 in Calm     95 % 0.01 in
03:43 36.4 °F 35.1 °F 30.33 in Calm     95 % 0.01 in
03:44 36.4 °F 35.1 °F 30.34 in Calm     95 % 0.01 in
03:49 36.4 °F 35.1 °F 30.34 in Calm     95 % 0.01 in
03:55 36.3 °F 35.0 °F 30.34 in Calm     95 % 0.01 in
04:00 36.3 °F 35.0 °F 30.34 in Calm     95 % 0.01 in
04:05 36.3 °F 35.0 °F 30.34 in Calm     95 % 0.01 in
04:10 36.4 °F 35.1 °F 30.33 in Calm     95 % 0.01 in
04:15 36.5 °F 35.2 °F 30.33 in Calm     95 % 0.01 in
04:20 36.5 °F 34.9 °F 30.33 in Calm     94 % 0.01 in
04:25 36.4 °F 34.8 °F 30.33 in Calm     94 % 0.01 in
04:30 36.1 °F 34.5 °F 30.33 in Calm     94 % 0.01 in
04:35 35.9 °F 34.3 °F 30.33 in Calm     94 % 0.00 in
04:40 35.7 °F 34.1 °F 30.33 in Calm     94 % 0.00 in
04:45 35.6 °F 34.0 °F 30.33 in Calm     94 % 0.00 in
04:50 35.3 °F 33.7 °F 30.33 in Calm     94 % 0.00 in
04:55 35.4 °F 34.1 °F 30.33 in Calm     95 % 0.00 in
04:57 35.4 °F 34.1 °F 30.33 in Calm     95 % 0.00 in
05:02 35.4 °F 34.1 °F 30.33 in Calm     95 % 0.00 in
05:07 35.3 °F 34.0 °F 30.34 in Calm     95 % 0.00 in
05:12 34.9 °F 33.3 °F 30.34 in SE 1.2 mph   94 % 0.00 in
05:17 34.5 °F 33.0 °F 30.34 in Calm     94 % 0.00 in
05:22 34.2 °F 32.7 °F 30.34 in Calm     94 % 0.00 in
05:27 34.0 °F 32.5 °F 30.34 in Calm     94 % 0.00 in
05:32 33.8 °F 32.3 °F 30.34 in Calm     94 % 0.00 in
05:37 33.8 °F 32.5 °F 30.34 in Calm     95 % 0.00 in
05:42 34.0 °F 32.7 °F 30.35 in Calm     95 % 0.00 in
05:47 34.0 °F 32.7 °F 30.35 in Calm     95 % 0.00 in
05:52 34.3 °F 33.0 °F 30.35 in Calm     95 % 0.00 in
05:58 34.1 °F 32.8 °F 30.35 in Calm     95 % 0.00 in
06:03 34.1 °F 32.8 °F 30.35 in Calm     95 % 0.00 in
06:08 34.3 °F 33.0 °F 30.36 in Calm     95 % 0.00 in
06:13 34.3 °F 33.0 °F 30.36 in Calm     95 % 0.00 in
06:18 34.5 °F 33.2 °F 30.36 in Calm     95 % 0.00 in
06:23 34.5 °F 33.2 °F 30.36 in Calm     95 % 0.00 in
06:28 34.6 °F 33.6 °F 30.36 in Calm     96 % 0.00 in
06:33 34.4 °F 33.1 °F 30.36 in Calm     95 % 0.00 in
06:38 34.3 °F 33.0 °F 30.36 in Calm     95 % 0.00 in
06:43 34.1 °F 32.8 °F 30.36 in Calm     95 % 0.00 in
06:48 34.0 °F 32.7 °F 30.36 in Calm     95 % 0.00 in
06:53 34.0 °F 32.7 °F 30.36 in Calm     95 % 0.00 in
06:58 33.8 °F 32.5 °F 30.36 in Calm     95 % 0.00 in
07:03 33.9 °F 32.6 °F 30.36 in Calm     95 % 0.00 in
07:08 33.7 °F 32.4 °F 30.36 in Calm     95 % 0.00 in
07:13 33.9 °F 32.6 °F 30.36 in Calm     95 % 0.00 in
07:18 33.8 °F 32.8 °F 30.37 in Calm     96 % 0.00 in
07:23 33.8 °F 32.5 °F 30.36 in Calm     95 % 0.00 in
07:28 33.8 °F 32.8 °F 30.36 in Calm     96 % 0.00 in
07:33 33.8 °F 32.8 °F 30.37 in Calm     96 % 0.00 in
07:38 34.0 °F 33.0 °F 30.37 in Calm     96 % 0.00 in
07:43 34.1 °F 33.1 °F 30.37 in Calm     96 % 0.00 in
07:48 34.3 °F 33.3 °F 30.37 in Calm     96 % 0.00 in
07:53 34.7 °F 33.7 °F 30.37 in Calm     96 % 0.00 in
07:58 35.1 °F 34.1 °F 30.38 in Calm     96 % 0.00 in
08:03 36.1 °F 35.1 °F 30.38 in Calm     96 % 0.00 in
08:09 37.3 °F 36.3 °F 30.38 in Calm     96 % 0.00 in
08:14 37.8 °F 36.8 °F 30.38 in Calm     96 % 0.00 in
08:18 38.3 °F 37.3 °F 30.39 in Calm     96 % 0.00 in
08:23 38.9 °F 37.9 °F 30.39 in Calm     96 % 0.00 in
08:28 39.1 °F 38.1 °F 30.39 in Calm     96 % 0.00 in
08:33 39.7 °F 38.7 °F 30.39 in Calm     96 % 0.00 in
08:38 40.2 °F 39.2 °F 30.40 in Calm     96 % 0.00 in
08:43 41.0 °F 39.9 °F 30.40 in Calm     96 % 0.00 in
08:48 41.2 °F 39.6 °F 30.40 in Calm     94 % 0.00 in
08:53 41.6 °F 40.0 °F 30.41 in Calm     94 % 0.00 in
08:58 42.2 °F 40.0 °F 30.41 in Calm     92 % 0.00 in
09:03 42.7 °F 40.0 °F 30.41 in Calm     90 % 0.00 in
09:08 43.3 °F 40.3 °F 30.41 in Calm     89 % 0.00 in
09:13 44.0 °F 40.4 °F 30.42 in Calm     87 % 0.00 in
09:18 44.6 °F 41.0 °F 30.42 in Calm     87 % 0.00 in
09:23 45.1 °F 41.5 °F 30.42 in Calm     87 % 0.00 in
09:28 45.6 °F 41.0 °F 30.42 in Calm     84 % 0.00 in
09:33 46.0 °F 40.8 °F 30.42 in NNW 1.2 mph   82 % 0.00 in
09:34 46.1 °F 40.9 °F 30.42 in NNW 1.2 mph   82 % 0.00 in
09:39 46.6 °F 41.4 °F 30.43 in Calm   0.1 mph 82 % 0.00 in
09:44 46.9 °F 41.1 °F 30.43 in NW 1.2 mph 1.2 mph 80 % 0.00 in
09:49 47.2 °F 40.4 °F 30.43 in Calm     77 % 0.00 in
10:47 51.9 °F 42.0 °F 30.43 in Calm   0.1 mph 69 % 0.00 in
10:52 52.0 °F 41.0 °F 30.43 in WNW 1.2 mph   66 % 0.00 in
10:57 52.0 °F 40.6 °F 30.42 in NW 1.2 mph 1.2 mph 65 % 0.00 in
11:02 52.1 °F 40.7 °F 30.43 in Calm     65 % 0.00 in
11:07 52.6 °F 41.9 °F 30.43 in Calm     67 % 0.00 in
11:12 52.6 °F 41.2 °F 30.42 in Calm     65 % 0.00 in
11:17 52.4 °F 41.0 °F 30.42 in NNW 2.3 mph 2.3 mph 65 % 0.00 in
11:22 53.1 °F 41.2 °F 30.42 in Calm     64 % 0.00 in
11:27 53.2 °F 40.5 °F 30.42 in NNW 1.2 mph   62 % 0.00 in
11:32 53.3 °F 40.6 °F 30.42 in NW 1.2 mph 1.2 mph 62 % 0.00 in
11:37 53.2 °F 40.5 °F 30.41 in WNW 1.2 mph 1.2 mph 62 % 0.00 in
11:42 53.3 °F 41.0 °F 30.41 in Calm     63 % 0.00 in
11:47 53.6 °F 40.9 °F 30.41 in NW 1.0 mph 1.0 mph 62 % 0.00 in
11:52 53.6 °F 40.9 °F 30.41 in Calm     62 % 0.00 in
11:57 53.7 °F 41.4 °F 30.41 in NW 3.0 mph 3.0 mph 63 % 0.00 in
12:02 53.7 °F 41.8 °F 30.41 in Calm     64 % 0.00 in
12:07 54.0 °F 41.3 °F 30.40 in Calm     62 % 0.00 in
12:12 54.0 °F 40.8 °F 30.40 in WNW 1.2 mph 1.2 mph 61 % 0.00 in
12:17 53.9 °F 40.8 °F 30.40 in WNW 2.3 mph 2.3 mph 61 % 0.00 in
12:22 54.0 °F 40.8 °F 30.40 in NW 2.3 mph 2.3 mph 61 % 0.00 in
12:27 54.3 °F 40.3 °F 30.39 in WNW 1.2 mph 1.2 mph 59 % 0.00 in
12:32 54.4 °F 40.4 °F 30.39 in North 2.3 mph 2.3 mph 59 % 0.00 in
12:42 54.7 °F 40.6 °F 30.39 in Calm     59 % 0.00 in
12:47 55.0 °F 40.5 °F 30.39 in NW 1.2 mph 1.2 mph 58 % 0.00 in
12:52 55.0 °F 40.5 °F 30.38 in West 2.3 mph 2.3 mph 58 % 0.00 in
12:57 55.2 °F 39.8 °F 30.38 in NW 1.2 mph 1.2 mph 56 % 0.00 in
13:02 55.6 °F 39.7 °F 30.37 in SSE 2.3 mph 2.3 mph 55 % 0.00 in
13:07 55.7 °F 40.7 °F 30.38 in NW 1.2 mph 1.2 mph 57 % 0.00 in
13:12 56.1 °F 40.1 °F 30.37 in Calm     55 % 0.00 in
13:17 56.4 °F 40.0 °F 30.37 in NW 1.2 mph 1.2 mph 54 % 0.00 in
13:22 56.6 °F 41.5 °F 30.36 in SE 2.3 mph 2.3 mph 57 % 0.00 in
13:27 57.0 °F 40.5 °F 30.36 in NW 2.3 mph 2.3 mph 54 % 0.00 in
13:32 56.9 °F 39.4 °F 30.36 in ENE 2.3 mph   52 % 0.00 in
13:37 57.0 °F 39.5 °F 30.36 in North 1.0 mph 1.0 mph 52 % 0.00 in
13:48 57.1 °F 40.1 °F 30.36 in SSE 2.3 mph 2.3 mph 53 % 0.00 in
13:52 57.2 °F 40.2 °F 30.36 in North 1.0 mph 1.0 mph 53 % 0.00 in
13:58 56.6 °F 39.2 °F 30.36 in Calm     52 % 0.00 in
14:03 56.4 °F 40.0 °F 30.35 in SSW 3.5 mph 3.5 mph 54 % 0.00 in
14:08 56.7 °F 39.7 °F 30.36 in NW 2.0 mph 2.0 mph 53 % 0.00 in
14:12 56.2 °F 39.8 °F 30.36 in WSW 1.2 mph 1.2 mph 54 % 0.00 in
14:17 56.1 °F 39.7 °F 30.35 in SW 1.2 mph 1.2 mph 54 % 0.00 in
14:22 56.1 °F 39.7 °F 30.35 in NW 2.3 mph 2.3 mph 54 % 0.00 in
14:27 56.0 °F 39.6 °F 30.35 in WNW 3.5 mph 3.5 mph 54 % 0.00 in
14:32 56.2 °F 39.8 °F 30.35 in Calm     54 % 0.00 in
14:37 56.3 °F 38.9 °F 30.35 in Calm     52 % 0.00 in
14:47 56.1 °F 39.2 °F 30.35 in NNW 1.2 mph   53 % 0.00 in
14:52 56.0 °F 39.6 °F 30.35 in South 1.2 mph 1.2 mph 54 % 0.00 in
14:57 56.1 °F 39.7 °F 30.35 in Calm   0.2 mph 54 % 0.00 in
15:07 55.9 °F 40.0 °F 30.35 in WSW 1.2 mph   55 % 0.00 in
15:12 55.7 °F 40.2 °F 30.35 in NW 1.0 mph 1.0 mph 56 % 0.00 in
15:17 55.4 °F 40.0 °F 30.36 in Calm     56 % 0.00 in
15:22 55.4 °F 40.0 °F 30.35 in NW 2.3 mph 2.3 mph 56 % 0.00 in
15:27 55.2 °F 39.3 °F 30.35 in WNW 1.2 mph 1.3 mph 55 % 0.00 in
15:32 55.0 °F 39.6 °F 30.35 in Calm     56 % 0.00 in
15:42 54.9 °F 39.9 °F 30.36 in NW 2.3 mph 2.3 mph 57 % 0.00 in
15:47 54.9 °F 40.4 °F 30.36 in Calm     58 % 0.00 in
15:52 54.8 °F 40.3 °F 30.36 in Calm     58 % 0.00 in
15:57 54.8 °F 39.8 °F 30.36 in NW 2.3 mph 2.3 mph 57 % 0.00 in
16:02 54.6 °F 39.7 °F 30.36 in Calm     57 % 0.00 in
16:07 54.5 °F 38.7 °F 30.36 in Calm     55 % 0.00 in
16:12 54.4 °F 39.5 °F 30.36 in Calm     57 % 0.00 in
16:17 54.3 °F 39.8 °F 30.36 in Calm     58 % 0.00 in
16:22 54.1 °F 39.6 °F 30.36 in Calm     58 % 0.00 in
16:27 53.9 °F 40.3 °F 30.36 in WNW 3.5 mph 3.5 mph 60 % 0.00 in
16:32 53.6 °F 40.5 °F 30.36 in NW 2.3 mph   61 % 0.00 in
16:37 53.3 °F 40.6 °F 30.36 in Calm     62 % 0.00 in
16:42 53.0 °F 41.1 °F 30.36 in Calm     64 % 0.00 in
16:47 52.6 °F 41.2 °F 30.36 in Calm     65 % 0.00 in
16:52 52.0 °F 41.4 °F 30.37 in Calm     67 % 0.00 in
16:57 51.4 °F 41.2 °F 30.36 in Calm     68 % 0.00 in
17:02 51.1 °F 40.9 °F 30.36 in Calm     68 % 0.00 in
17:07 50.8 °F 41.0 °F 30.37 in Calm     69 % 0.00 in
17:12 50.5 °F 40.7 °F 30.37 in Calm     69 % 0.00 in
17:17 50.2 °F 40.4 °F 30.37 in Calm     69 % 0.00 in
17:22 49.9 °F 40.5 °F 30.37 in Calm     70 % 0.00 in
17:27 49.6 °F 40.6 °F 30.37 in Calm     71 % 0.00 in
17:32 49.1 °F 40.5 °F 30.37 in Calm     72 % 0.00 in
17:37 48.7 °F 40.8 °F 30.37 in Calm     74 % 0.00 in
17:42 48.2 °F 40.3 °F 30.37 in Calm     74 % 0.00 in
17:47 47.7 °F 40.2 °F 30.37 in Calm     75 % 0.00 in
17:53 47.4 °F 40.6 °F 30.38 in Calm     77 % 0.00 in
17:58 47.0 °F 40.2 °F 30.38 in Calm     77 % 0.00 in
18:03 46.6 °F 40.1 °F 30.38 in Calm     78 % 0.00 in
18:08 46.2 °F 40.0 °F 30.38 in Calm     79 % 0.00 in
18:13 46.0 °F 40.2 °F 30.38 in Calm     80 % 0.00 in
18:18 45.7 °F 39.9 °F 30.38 in Calm     80 % 0.00 in
18:23 45.7 °F 40.2 °F 30.38 in Calm     81 % 0.00 in
18:28 46.0 °F 40.2 °F 30.38 in Calm     80 % 0.00 in
18:33 46.1 °F 40.3 °F 30.38 in Calm     80 % 0.00 in
18:38 45.8 °F 40.3 °F 30.38 in Calm     81 % 0.00 in
18:43 45.5 °F 40.0 °F 30.38 in Calm     81 % 0.00 in
18:48 45.2 °F 40.0 °F 30.38 in Calm     82 % 0.00 in
18:53 45.0 °F 39.8 °F 30.39 in Calm     82 % 0.00 in
18:58 45.0 °F 40.1 °F 30.38 in Calm     83 % 0.00 in
19:03 45.1 °F 40.2 °F 30.39 in Calm     83 % 0.00 in
19:08 45.0 °F 40.1 °F 30.39 in Calm     83 % 0.00 in
19:13 44.7 °F 40.2 °F 30.39 in Calm     84 % 0.00 in
19:18 44.5 °F 40.0 °F 30.39 in Calm     84 % 0.00 in
19:23 44.5 °F 40.3 °F 30.39 in Calm     85 % 0.00 in
19:33 44.2 °F 40.0 °F 30.39 in Calm     85 % 0.00 in
19:38 44.0 °F 39.8 °F 30.39 in Calm     85 % 0.00 in
19:43 43.9 °F 40.0 °F 30.40 in Calm     86 % 0.00 in
19:48 44.0 °F 40.4 °F 30.39 in Calm     87 % 0.00 in
19:53 44.1 °F 40.5 °F 30.40 in Calm     87 % 0.00 in
19:58 44.1 °F 40.5 °F 30.40 in Calm     87 % 0.00 in
20:08 44.2 °F 40.9 °F 30.40 in Calm     88 % 0.00 in
20:13 44.2 °F 40.9 °F 30.40 in Calm     88 % 0.00 in
20:28 44.3 °F 41.0 °F 30.40 in Calm     88 % 0.00 in
20:33 44.3 °F 41.0 °F 30.40 in Calm     88 % 0.00 in
20:38 44.5 °F 41.2 °F 30.40 in Calm     88 % 0.00 in
20:43 44.7 °F 40.8 °F 30.40 in Calm     86 % 0.00 in
20:48 44.9 °F 41.3 °F 30.40 in Calm     87 % 0.00 in
20:53 45.0 °F 41.1 °F 30.40 in Calm     86 % 0.00 in
20:58 45.0 °F 41.1 °F 30.40 in Calm     86 % 0.00 in
21:18 44.0 °F 41.0 °F 30.41 in Calm     89 % 0.00 in
21:23 43.5 °F 40.5 °F 30.41 in Calm     89 % 0.00 in
21:28 43.3 °F 40.3 °F 30.41 in Calm     89 % 0.00 in
21:38 42.7 °F 39.7 °F 30.41 in Calm     89 % 0.00 in
21:43 42.5 °F 39.8 °F 30.42 in Calm     90 % 0.00 in
21:48 42.3 °F 39.6 °F 30.41 in Calm     90 % 0.00 in
21:53 42.0 °F 39.3 °F 30.42 in Calm     90 % 0.00 in
21:58 41.8 °F 39.4 °F 30.42 in Calm     91 % 0.00 in
22:09 41.6 °F 39.2 °F 30.42 in Calm     91 % 0.00 in
22:14 41.5 °F 39.1 °F 30.42 in Calm     91 % 0.00 in
22:19 41.3 °F 38.9 °F 30.42 in Calm     91 % 0.00 in
22:24 41.2 °F 39.1 °F 30.42 in Calm     92 % 0.00 in
22:29 41.0 °F 38.6 °F 30.42 in Calm     91 % 0.00 in
22:34 40.7 °F 38.3 °F 30.42 in Calm     91 % 0.00 in
22:39 40.5 °F 38.1 °F 30.42 in Calm     91 % 0.00 in
22:44 40.3 °F 38.2 °F 30.42 in Calm     92 % 0.00 in
22:49 40.0 °F 37.9 °F 30.42 in Calm     92 % 0.00 in
22:54 39.9 °F 37.8 °F 30.42 in Calm     92 % 0.00 in
22:59 39.7 °F 37.6 °F 30.42 in Calm     92 % 0.00 in
23:04 39.7 °F 37.8 °F 30.42 in Calm     93 % 0.00 in
23:09 39.7 °F 37.8 °F 30.41 in Calm     93 % 0.00 in
23:14 39.5 °F 37.4 °F 30.41 in Calm     92 % 0.00 in
23:19 39.3 °F 37.4 °F 30.41 in Calm     93 % 0.00 in
23:24 39.3 °F 37.4 °F 30.41 in Calm     93 % 0.00 in
23:29 39.3 °F 37.4 °F 30.41 in Calm     93 % 0.00 in
23:34 38.8 °F 36.7 °F 30.41 in Calm     92 % 0.00 in
23:39 38.6 °F 36.8 °F 30.41 in Calm     93 % 0.00 in
23:49 38.6 °F 36.8 °F 30.41 in Calm     93 % 0.00 in
23:54 38.5 °F 36.7 °F 30.41 in Calm     93 % 0.00 in
23:59 38.4 °F 36.6 °F 30.41 in Calm     93 % 0.00 in
Park Place, Exeter, Tulare County, California, USA
Compliments of Weather Underground - 2.5 mb